< < Back
Terminal Aerodrome Forecast


Current Version              Previous Versions:   1  2  3  4  5  6  7  8  9  

Terminal Aerodrome Forecast

517
FTUS42 KTAE 242100 AAA
TAFDHN
TAF AMD
KDHN 242134Z 2422/2518 22010KT P6SM VCTS SCT040CB
      TEMPO 2422/2424 VRB15G25KT 2SM +TSRA BKN040CB OVC100
     FM250000 22006KT P6SM SCT030=



Latest METAR

630
SAUS70 KWBC 251300 RRC
MTRDHN
METAR KDHN 251253Z 20003KT 10SM CLR 26/23 A3008 RMK AO2 SLP181
T02560233


USA.gov is the U.S. government's official web portal to all federal, state and local government web resources and services.